23.2°F
Current conditions from King Hill
Updated every 5 minutes
 
  Thursday November 27, 2014

Station Historical Data
Daily Summary for April 15, 2011 Units:  Metric    English   Both
« Previous Day
Next Day »
Daily Weekly Monthly Yearly Custom
  High: Low: Average:
Temperature: 4.4 °C -4.8 °C -0.5 °C
Dew Point: -7.4 °C -13.2 °C -10.5 °C
Humidity: 64% 33% 48%
Wind Speed: 11.3km/h 0km/h 4.2km/h
Wind Gust: 24.1km/h - -
Wind- - SE
Pressure: 1033.7 hPa 1026.3 hPa -
Precipitation: 0 mm    
Historical Graphs
 
 
Tabular Data for April 15, 2011
Time Temperature Dew Point Pressure Wind Wind Speed Wind Gust Humidity Daily Rainfall
00:00 -0.6 °C -7.4 °C 1026.3 hPa Calm   12.9 km/h 60% 2.3 mm
00:05 -0.7 °C -7.5 °C 1026.6 hPa Calm   12.9 km/h 60% 0 mm
00:10 -0.9 °C -8.3 °C 1026.6 hPa NNE 3.2 km/h 19.3 km/h 57% 0 mm
00:15 -0.8 °C -8.3 °C 1026.6 hPa NNE 4.8 km/h 19.3 km/h 57% 0 mm
00:19 -0.8 °C -8.7 °C 1026.6 hPa North 4.8 km/h 14.5 km/h 55% 0 mm
00:25 -0.8 °C -9.2 °C 1026.6 hPa NE 4.8 km/h 14.5 km/h 53% 0 mm
00:30 -0.8 °C -9.2 °C 1026.6 hPa NNE 6.4 km/h 16.1 km/h 53% 0 mm
00:35 -0.9 °C -9.3 °C 1027 hPa NNE 3.2 km/h 16.1 km/h 53% 0 mm
00:40 -1 °C -9.6 °C 1027 hPa NE 6.4 km/h 14.5 km/h 52% 0 mm
00:44 -1.1 °C -9.4 °C 1027 hPa NNE 1.6 km/h 14.5 km/h 53% 0 mm
00:50 -1.2 °C -10 °C 1027 hPa NNE 3.2 km/h 14.5 km/h 51% 0 mm
00:55 -1.3 °C -9.6 °C 1027 hPa NNE 3.2 km/h 14.5 km/h 53% 0 mm
01:00 -1.3 °C -10.2 °C 1027 hPa NNE 6.4 km/h 14.5 km/h 51% 0 mm
01:05 -1.3 °C -9.9 °C 1027.3 hPa NE 3.2 km/h 14.5 km/h 52% 0 mm
01:10 -1.3 °C -11.2 °C 1027.3 hPa NE 8 km/h 19.3 km/h 47% 0 mm
01:15 -1.4 °C -10 °C 1027.3 hPa NNE 1.6 km/h 19.3 km/h 52% 0 mm
01:20 -1.5 °C -11.1 °C 1027.3 hPa NNE 4.8 km/h 19.3 km/h 48% 0 mm
01:25 -1.5 °C -10.3 °C 1027.3 hPa NNE 4.8 km/h 19.3 km/h 51% 0 mm
01:30 -1.6 °C -10.4 °C 1027.3 hPa NNE 3.2 km/h 14.5 km/h 51% 0 mm
01:35 -1.7 °C -10.5 °C 1027.3 hPa NNE 3.2 km/h 14.5 km/h 51% 0 mm
01:40 -1.8 °C -10.8 °C 1027.3 hPa NNE 3.2 km/h 14.5 km/h 50% 0 mm
01:45 -1.8 °C -10.6 °C 1027.3 hPa NE 4.8 km/h 17.7 km/h 51% 0 mm
01:50 -1.8 °C -11.2 °C 1027.3 hPa NNE 6.4 km/h 17.7 km/h 49% 0 mm
01:55 -1.9 °C -10.7 °C 1027.3 hPa NNE 1.6 km/h 17.7 km/h 51% 0 mm
01:59 -2 °C -10.8 °C 1027.7 hPa NNE 8 km/h 16.1 km/h 51% 0 mm
02:05 -2 °C -10.6 °C 1027.7 hPa NNE 1.6 km/h 16.1 km/h 52% 0 mm
02:10 -2.1 °C -10.8 °C 1027.7 hPa NNE 4.8 km/h 17.7 km/h 51% 0 mm
02:15 -2.1 °C -10.4 °C 1027.7 hPa NE 4.8 km/h 17.7 km/h 53% 0 mm
02:20 -2.3 °C -10.6 °C 1027.7 hPa NNE 4.8 km/h 17.7 km/h 53% 0 mm
02:25 -2.2 °C -11 °C 1027.7 hPa NE 4.8 km/h 17.7 km/h 51% 0 mm
02:30 -2.3 °C -10.8 °C 1027.7 hPa NNE 3.2 km/h 16.1 km/h 52% 0 mm
02:35 -2.3 °C -10.8 °C 1028 hPa NNE 4.8 km/h 14.5 km/h 52% 0 mm
02:40 -2.3 °C -10.6 °C 1028 hPa North 4.8 km/h 14.5 km/h 53% 0 mm
02:44 -2.4 °C -10.7 °C 1028 hPa NE 3.2 km/h 16.1 km/h 53% 0 mm
02:50 -2.5 °C -10.8 °C 1028 hPa NNE 4.8 km/h 16.1 km/h 53% 0 mm
02:55 -2.6 °C -11.1 °C 1028 hPa NE 3.2 km/h 17.7 km/h 52% 0 mm
03:00 -2.6 °C -10.6 °C 1028 hPa NNE 1.6 km/h 17.7 km/h 54% 0 mm
03:05 -2.6 °C -10.9 °C 1028.3 hPa NNE 8 km/h 12.9 km/h 53% 0 mm
03:10 -2.7 °C -10.9 °C 1028.3 hPa NNE 1.6 km/h 12.9 km/h 53% 0 mm
03:15 -2.7 °C -10.5 °C 1028.3 hPa NNE 1.6 km/h 12.9 km/h 55% 0 mm
03:20 -2.9 °C -10.2 °C 1028.3 hPa North 1.6 km/h 11.3 km/h 57% 0 mm
03:25 -3.1 °C -10.2 °C 1028.3 hPa NNE 4.8 km/h 12.9 km/h 58% 0 mm
03:30 -3.1 °C -10.7 °C 1028.3 hPa NNE 3.2 km/h 12.9 km/h 56% 0 mm
03:35 -3.1 °C -10.4 °C 1028.7 hPa NNE 3.2 km/h 11.3 km/h 57% 0 mm
03:40 -3.2 °C -10.5 °C 1028.7 hPa North 3.2 km/h 14.5 km/h 57% 0 mm
03:45 -3.2 °C -10.1 °C 1028.7 hPa Calm   14.5 km/h 59% 0 mm
03:50 -3.3 °C -9.8 °C 1029 hPa Calm   11.3 km/h 61% 0 mm
03:55 -3.5 °C -9.9 °C 1029 hPa NNE 1.6 km/h 8 km/h 61% 0 mm
04:15 -3.7 °C -9.7 °C 1029.3 hPa NE 1.6 km/h 11.3 km/h 63% 0 mm
04:20 -3.7 °C -10.2 °C 1029.3 hPa NNE 3.2 km/h 16.1 km/h 61% 0 mm
04:24 -3.7 °C -9.9 °C 1029.3 hPa Calm   16.1 km/h 62% 0 mm
04:30 -3.8 °C -10 °C 1029.7 hPa Calm   11.3 km/h 62% 0 mm
04:34 -3.8 °C -10.4 °C 1029.7 hPa NNE 4.8 km/h 12.9 km/h 60% 0 mm
04:40 -3.8 °C -10.3 °C 1029.7 hPa Calm   12.9 km/h 61% 0 mm
04:44 -3.9 °C -10.1 °C 1029.7 hPa NNE 1.6 km/h 9.7 km/h 62% 0 mm
04:50 -3.9 °C -9.9 °C 1029.7 hPa Calm   9.7 km/h 63% 0 mm
04:55 -4 °C -10 °C 1029.7 hPa NNE 3.2 km/h 14.5 km/h 63% 0 mm
04:59 -4.1 °C -10.1 °C 1029.7 hPa North 3.2 km/h 14.5 km/h 63% 0 mm
05:05 -4.1 °C -10.1 °C 1030 hPa NE 3.2 km/h 11.3 km/h 63% 0 mm
05:10 -4.1 °C -10.1 °C 1030 hPa NNE 3.2 km/h 11.3 km/h 63% 0 mm
05:15 -4.2 °C -10.2 °C 1030 hPa NNE 1.6 km/h 9.7 km/h 63% 0 mm
05:19 -4.2 °C -10.2 °C 1030 hPa NNE 4.8 km/h 12.9 km/h 63% 0 mm
05:24 -4.3 °C -10.3 °C 1030.4 hPa NNE 3.2 km/h 12.9 km/h 63% 0 mm
05:30 -4.3 °C -10.1 °C 1030.4 hPa NE 1.6 km/h 11.3 km/h 64% 0 mm
05:34 -4.3 °C -10.1 °C 1030.4 hPa Calm   8 km/h 64% 0 mm
05:40 -4.4 °C -10.4 °C 1030.7 hPa NNE 3.2 km/h 17.7 km/h 63% 0 mm
05:45 -4.4 °C -10.4 °C 1030.7 hPa NNE 1.6 km/h 17.7 km/h 63% 0 mm
05:49 -4.4 °C -10.6 °C 1030.7 hPa NNE 4.8 km/h 9.7 km/h 62% 0 mm
05:55 -4.4 °C -11.1 °C 1031 hPa NNE 3.2 km/h 9.7 km/h 60% 0 mm
05:59 -4.4 °C -11 °C 1031 hPa Calm   9.7 km/h 60% 0 mm
06:05 -4.4 °C -11.4 °C 1031 hPa Calm   16.1 km/h 58% 0 mm
06:10 -4.5 °C -11.5 °C 1031.4 hPa NNE 3.2 km/h 16.1 km/h 58% 0 mm
06:15 -4.6 °C -11.4 °C 1031.4 hPa NNE 1.6 km/h 8 km/h 59% 0 mm
06:20 -4.7 °C -11.4 °C 1031.7 hPa North 1.6 km/h 8 km/h 59% 0 mm
06:24 -4.7 °C -11.1 °C 1031.7 hPa Calm   8 km/h 61% 0 mm
06:30 -4.8 °C -11.3 °C 1031.7 hPa NNE 3.2 km/h 9.7 km/h 60% 0 mm
06:34 -4.8 °C -11.4 °C 1032.1 hPa NNE 1.6 km/h 9.7 km/h 60% 0 mm
06:39 -4.8 °C -11.4 °C 1032.1 hPa NNE 1.6 km/h 9.7 km/h 60% 0 mm
06:45 -4.8 °C -11.4 °C 1032.4 hPa NNE 1.6 km/h 9.7 km/h 60% 0 mm
06:50 -4.8 °C -11.3 °C 1032.4 hPa NE 3.2 km/h 11.3 km/h 60% 0 mm
06:54 -4.7 °C -11.5 °C 1032.4 hPa Calm   11.3 km/h 59% 0 mm
07:00 -4.8 °C -11.6 °C 1032.4 hPa North 3.2 km/h 11.3 km/h 59% 0 mm
07:05 -4.8 °C -11.3 °C 1032.4 hPa NNE 4.8 km/h 11.3 km/h 60% 0 mm
07:10 -4.8 °C -11.6 °C 1032.7 hPa North 1.6 km/h 14.5 km/h 59% 0 mm
07:14 -4.7 °C -11.7 °C 1032.7 hPa NE 3.2 km/h 14.5 km/h 58% 0 mm
07:20 -4.6 °C -11.8 °C 1032.7 hPa NE 3.2 km/h 17.7 km/h 57% 0 mm
07:24 -4.5 °C -12.2 °C 1032.7 hPa NNE 6.4 km/h 17.7 km/h 55% 0 mm
07:30 -4.3 °C -12 °C 1033.1 hPa NNE 1.6 km/h 17.7 km/h 55% 0 mm
07:39 -3.6 °C -12 °C 1033.1 hPa NNE 4.8 km/h 12.9 km/h 52% 0 mm
07:45 -3.4 °C -11.2 °C 1033.1 hPa North 3.2 km/h 12.9 km/h 55% 0 mm
07:50 -3.2 °C -12.1 °C 1033.1 hPa NNE 8 km/h 14.5 km/h 50% 0 mm
07:54 -3.1 °C -12 °C 1033.4 hPa NNE 6.4 km/h 16.1 km/h 50% 0 mm
07:59 -2.9 °C -12.4 °C 1033.4 hPa NNE 6.4 km/h 16.1 km/h 48% 0 mm
08:05 -2.9 °C -11.9 °C 1033.4 hPa NNE 1.6 km/h 16.1 km/h 50% 0 mm
08:09 -2.8 °C -12.3 °C 1033.4 hPa North 3.2 km/h 16.1 km/h 48% 0 mm
08:15 -2.6 °C -12.4 °C 1033.4 hPa NE 3.2 km/h 12.9 km/h 47% 0 mm
08:19 -2.6 °C -12.6 °C 1033.4 hPa NNE 6.4 km/h 14.5 km/h 46% 0 mm
08:25 -2.6 °C -12.9 °C 1033.4 hPa NNE 3.2 km/h 17.7 km/h 45% 0 mm
08:29 -2.4 °C -12.2 °C 1033.4 hPa NNE 4.8 km/h 17.7 km/h 47% 0 mm
08:35 -2.4 °C -12.7 °C 1033.7 hPa NE 4.8 km/h 17.7 km/h 45% 0 mm
08:39 -2.4 °C -12.4 °C 1033.7 hPa NNE 4.8 km/h 17.7 km/h 46% 0 mm
08:44 -2.3 °C -13.2 °C 1033.7 hPa NNE 6.4 km/h 16.1 km/h 43% 0 mm
08:49 -2.3 °C -12.3 °C 1033.7 hPa ENE 3.2 km/h 16.1 km/h 46% 0 mm
08:55 -2.1 °C -12.2 °C 1033.7 hPa NNE 3.2 km/h 11.3 km/h 46% 0 mm
09:00 -1.9 °C -12.3 °C 1033.7 hPa North 3.2 km/h 9.7 km/h 45% 0 mm
09:04 -1.9 °C -12 °C 1033.7 hPa NNE 1.6 km/h 12.9 km/h 46% 0 mm
09:09 -1.6 °C -11.7 °C 1033.7 hPa NNE 1.6 km/h 12.9 km/h 46% 0 mm
09:15 -1.3 °C -11.2 °C 1033.7 hPa NNE 3.2 km/h 9.7 km/h 47% 0 mm
09:19 -1.4 °C -12.4 °C 1033.7 hPa North 4.8 km/h 16.1 km/h 43% 0 mm
09:25 -1.5 °C -12.4 °C 1033.7 hPa North 4.8 km/h 16.1 km/h 43% 0 mm
09:30 -1.6 °C -12.3 °C 1033.7 hPa North 1.6 km/h 12.9 km/h 44% 0 mm
09:34 -1.5 °C -12.4 °C 1033.7 hPa North 3.2 km/h 12.9 km/h 43% 0 mm
09:40 -1.4 °C -12.4 °C 1033.7 hPa NNW 3.2 km/h 9.7 km/h 43% 0 mm
09:44 -1.2 °C -12.8 °C 1033.7 hPa NNW 4.8 km/h 9.7 km/h 41% 0 mm
09:49 -1.2 °C -11.1 °C 1033.7 hPa NNW 4.8 km/h 11.3 km/h 47% 0 mm
09:55 -1.1 °C -11.5 °C 1033.7 hPa North 3.2 km/h 11.3 km/h 45% 0 mm
09:59 -0.8 °C -11.8 °C 1033.7 hPa North 4.8 km/h 12.9 km/h 43% 0 mm
10:05 -0.8 °C -11 °C 1033.7 hPa North 1.6 km/h 12.9 km/h 46% 0 mm
10:09 -0.8 °C -11.8 °C 1033.7 hPa NW 1.6 km/h 11.3 km/h 43% 0 mm
10:14 -0.4 °C -10.9 °C 1033.7 hPa North 3.2 km/h 11.3 km/h 45% 0 mm
10:20 -0.3 °C -12 °C 1033.7 hPa North 6.4 km/h 14.5 km/h 41% 0 mm
10:24 -0.5 °C -12.8 °C 1033.7 hPa North 3.2 km/h 14.5 km/h 39% 0 mm
10:30 -0.6 °C -13.2 °C 1033.4 hPa NNW 3.2 km/h 11.3 km/h 38% 0 mm
10:34 -0.4 °C -12.7 °C 1033.7 hPa North 8 km/h 17.7 km/h 39% 0 mm
10:40 -0.2 °C -11.6 °C 1033.7 hPa NNE 4.8 km/h 17.7 km/h 42% 0 mm
10:44 -0.1 °C -12.1 °C 1033.7 hPa NNE 1.6 km/h 12.9 km/h 40% 0 mm
10:49 0 °C -12.3 °C 1033.7 hPa Calm   12.9 km/h 39% 0 mm
10:55 0.1 °C -11.3 °C 1033.7 hPa NNW 1.6 km/h 9.7 km/h 42% 0 mm
10:59 0.3 °C -13.1 °C 1033.7 hPa North 1.6 km/h 9.7 km/h 36% 0 mm
11:05 0.3 °C -11.8 °C 1033.7 hPa NNW 4.8 km/h 9.7 km/h 40% 0 mm
11:09 0.6 °C -11.8 °C 1033.7 hPa NE 4.8 km/h 9.7 km/h 39% 0 mm
11:14 0.1 °C -12.3 °C 1033.7 hPa Calm   9.7 km/h 39% 0 mm
11:20 0.4 °C -11.9 °C 1033.7 hPa North 3.2 km/h 11.3 km/h 39% 0 mm
11:24 0.6 °C -12.8 °C 1033.4 hPa Calm   11.3 km/h 36% 0 mm
11:30 1.1 °C -11.4 °C 1033.4 hPa NE 3.2 km/h 11.3 km/h 39% 0 mm
11:34 1.4 °C -12.4 °C 1033.7 hPa NNE 3.2 km/h 12.9 km/h 35% 0 mm
11:39 1.7 °C -11.4 °C 1033.7 hPa NNE 3.2 km/h 12.9 km/h 37% 0 mm
11:45 1.5 °C -11.6 °C 1033.7 hPa NE 4.8 km/h 16.1 km/h 37% 0 mm
11:50 1.3 °C -12.9 °C 1033.4 hPa East 4.8 km/h 16.1 km/h 34% 0 mm
11:59 1.3 °C -12.2 °C 1033.4 hPa NW 4.8 km/h 14.5 km/h 36% 0 mm
12:04 1.4 °C -10.4 °C 1033.4 hPa NNE 3.2 km/h 14.5 km/h 41% 0 mm
12:09 1.4 °C -12.4 °C 1033.4 hPa Calm   11.3 km/h 35% 0 mm
12:14 1.6 °C -9.6 °C 1033.7 hPa North 6.4 km/h 14.5 km/h 43% 0 mm
12:19 1.7 °C -11.2 °C 1033.7 hPa NNW 3.2 km/h 14.5 km/h 38% 0 mm
12:24 1.9 °C -10 °C 1033.7 hPa NW 6.4 km/h 12.9 km/h 41% 0 mm
12:30 1.4 °C -10.4 °C 1033.7 hPa NW 8 km/h 16.1 km/h 41% 0 mm
12:34 0.9 °C -9.7 °C 1033.7 hPa WNW 11.3 km/h 22.5 km/h 45% 0 mm
12:39 0.9 °C -8.6 °C 1033.4 hPa WNW 6.4 km/h 22.5 km/h 49% 0 mm
12:44 1.2 °C -10.3 °C 1033.4 hPa NW 8 km/h 19.3 km/h 42% 0 mm
12:50 1 °C -10.2 °C 1033.4 hPa WNW 9.7 km/h 19.3 km/h 43% 0 mm
12:55 1.4 °C -9.8 °C 1033.4 hPa NNW 6.4 km/h 17.7 km/h 43% 0 mm
12:59 1.7 °C -9.6 °C 1033.4 hPa NNW 6.4 km/h 16.1 km/h 43% 0 mm
13:05 1.9 °C -10.3 °C 1033.4 hPa NNW 3.2 km/h 12.9 km/h 40% 0 mm
13:09 2.3 °C -8.2 °C 1033.7 hPa North 4.8 km/h 14.5 km/h 46% 0 mm
13:14 2.6 °C -9.1 °C 1033.7 hPa NNW 9.7 km/h 24.1 km/h 42% 0 mm
13:19 2.8 °C -8.3 °C 1033.7 hPa North 8 km/h 24.1 km/h 44% 0 mm
13:24 2 °C -10.2 °C 1033.7 hPa NW 9.7 km/h 19.3 km/h 40% 0 mm
13:30 1.8 °C -9.8 °C 1033.7 hPa NW 11.3 km/h 19.3 km/h 42% 0 mm
13:34 1.6 °C -10 °C 1033.4 hPa NNW 8 km/h 16.1 km/h 42% 0 mm
13:39 1.9 °C -9.6 °C 1033.4 hPa North 6.4 km/h 16.1 km/h 42% 0 mm
13:44 2.4 °C -8.9 °C 1033.4 hPa NW 8 km/h 14.5 km/h 43% 0 mm
13:50 2.2 °C -9.7 °C 1033.4 hPa NW 9.7 km/h 19.3 km/h 41% 0 mm
13:55 2.1 °C -9.6 °C 1033.4 hPa NW 8 km/h 24.1 km/h 42% 0 mm
14:04 2.8 °C -8.9 °C 1033.4 hPa North 6.4 km/h 14.5 km/h 42% 0 mm
14:09 2.7 °C -9.6 °C 1033.4 hPa NNW 4.8 km/h 14.5 km/h 40% 0 mm
14:14 2.6 °C -10 °C 1033.1 hPa North 6.4 km/h 16.1 km/h 39% 0 mm
14:19 2.7 °C -10.6 °C 1033.1 hPa NNE 4.8 km/h 16.1 km/h 37% 0 mm
14:24 2.7 °C -9.3 °C 1033.1 hPa North 6.4 km/h 16.1 km/h 41% 0 mm
14:29 2.7 °C -9.6 °C 1032.7 hPa NW 4.8 km/h 16.1 km/h 40% 0 mm
14:35 2.8 °C -10.1 °C 1033.1 hPa NNW 3.2 km/h 11.3 km/h 38% 0 mm
14:39 3.1 °C -9.2 °C 1032.7 hPa NE 6.4 km/h 14.5 km/h 40% 0 mm
14:44 3.2 °C -10.5 °C 1032.4 hPa NNW 3.2 km/h 14.5 km/h 36% 0 mm
14:49 3.2 °C -10.1 °C 1032.4 hPa NNW 6.4 km/h 11.3 km/h 37% 0 mm
14:55 3.2 °C -9.7 °C 1032.4 hPa NNE 4.8 km/h 16.1 km/h 38% 0 mm
14:59 3.3 °C -9.1 °C 1032.1 hPa North 4.8 km/h 16.1 km/h 40% 0 mm
15:04 3.5 °C -10.2 °C 1032.1 hPa North 3.2 km/h 11.3 km/h 36% 0 mm
15:10 2.9 °C -10 °C 1031.7 hPa NNW 8 km/h 14.5 km/h 38% 0 mm
15:14 2.8 °C -10.1 °C 1032.1 hPa NNW 6.4 km/h 17.7 km/h 38% 0 mm
15:20 3.4 °C -9.6 °C 1031.7 hPa NW 8 km/h 17.7 km/h 38% 0 mm
15:24 3.6 °C -9.4 °C 1031.7 hPa North 3.2 km/h 16.1 km/h 38% 0 mm
15:30 3.8 °C -9.6 °C 1031.7 hPa NNW 4.8 km/h 12.9 km/h 37% 0 mm
15:35 3.8 °C -9.6 °C 1032.1 hPa North 4.8 km/h 12.9 km/h 37% 0 mm
15:39 3.7 °C -10.1 °C 1031.7 hPa NNW 6.4 km/h 16.1 km/h 36% 0 mm
15:45 3.7 °C -9.3 °C 1032.1 hPa NNW 8 km/h 16.1 km/h 38% 0 mm
15:54 3.4 °C -9.9 °C 1032.1 hPa NNE 1.6 km/h 14.5 km/h 37% 0 mm
15:59 3.7 °C -10.1 °C 1032.1 hPa NE 3.2 km/h 14.5 km/h 36% 0 mm
16:04 3.8 °C -9.9 °C 1032.1 hPa NNW 9.7 km/h 16.1 km/h 36% 0 mm
16:09 3.9 °C -9.1 °C 1032.1 hPa NNW 1.6 km/h 16.1 km/h 38% 0 mm
16:14 4.3 °C -9.1 °C 1032.1 hPa NW 3.2 km/h 12.9 km/h 37% 0 mm
16:19 4.4 °C -9.7 °C 1032.1 hPa North 4.8 km/h 12.9 km/h 35% 0 mm
16:25 4.3 °C -10.2 °C 1032.1 hPa NW 6.4 km/h 14.5 km/h 34% 0 mm
16:29 4.2 °C -8.9 °C 1032.1 hPa North 3.2 km/h 14.5 km/h 38% 0 mm
16:34 4.3 °C -10.6 °C 1032.1 hPa North 4.8 km/h 11.3 km/h 33% 0 mm
16:39 4.3 °C -10.2 °C 1032.1 hPa NNW 4.8 km/h 11.3 km/h 34% 0 mm
16:45 4.2 °C -10.7 °C 1031.7 hPa North 1.6 km/h 11.3 km/h 33% 0 mm
16:54 3.8 °C -9.2 °C 1031.7 hPa North 4.8 km/h 14.5 km/h 38% 0 mm
16:59 3.8 °C -9.9 °C 1032.1 hPa NNE 1.6 km/h 14.5 km/h 36% 0 mm
17:04 3.9 °C -9.4 °C 1032.1 hPa NNW 3.2 km/h 14.5 km/h 37% 0 mm
17:09 4.1 °C -9.7 °C 1032.1 hPa NNW 3.2 km/h 9.7 km/h 36% 0 mm
17:14 4.1 °C -10.1 °C 1032.1 hPa NNW 1.6 km/h 9.7 km/h 35% 0 mm
17:19 4.2 °C -8.9 °C 1031.7 hPa North 1.6 km/h 9.7 km/h 38% 0 mm
17:24 4.3 °C -9.2 °C 1031.7 hPa NNW 1.6 km/h 9.7 km/h 37% 0 mm
17:29 4.2 °C -9.6 °C 1031.7 hPa North 6.4 km/h 12.9 km/h 36% 0 mm
17:34 4.1 °C -9.3 °C 1031.4 hPa North 3.2 km/h 12.9 km/h 37% 0 mm
17:39 3.9 °C -9.4 °C 1031.4 hPa North 1.6 km/h 11.3 km/h 37% 0 mm
17:44 3.9 °C -9.1 °C 1031.4 hPa North 4.8 km/h 11.3 km/h 38% 0 mm
17:49 3.8 °C -8.9 °C 1031.4 hPa North 3.2 km/h 9.7 km/h 39% 0 mm
17:54 3.7 °C -9 °C 1031.4 hPa NNW 4.8 km/h 9.7 km/h 39% 0 mm
17:59 3.5 °C -8.8 °C 1031.4 hPa NNW 3.2 km/h 8 km/h 40% 0 mm
18:04 3.4 °C -9.3 °C 1031.4 hPa North 1.6 km/h 11.3 km/h 39% 0 mm
18:09 3.3 °C -9 °C 1031.7 hPa NNW 3.2 km/h 11.3 km/h 40% 0 mm
18:14 3.4 °C -9.6 °C 1031.4 hPa NNE 3.2 km/h 9.7 km/h 38% 0 mm
18:19 3.3 °C -9.7 °C 1031.4 hPa North 1.6 km/h 8 km/h 38% 0 mm
18:24 3.2 °C -9.8 °C 1031.4 hPa NNE 4.8 km/h 9.7 km/h 38% 0 mm
18:29 3.1 °C -9.2 °C 1031.4 hPa Calm   9.7 km/h 40% 0 mm
18:34 3 °C -9.3 °C 1031 hPa NNE 1.6 km/h 6.4 km/h 40% 0 mm
18:39 3.1 °C -10.2 °C 1031 hPa NNE 1.6 km/h 6.4 km/h 37% 0 mm
18:44 2.9 °C -10.7 °C 1031 hPa NNE 1.6 km/h 11.3 km/h 36% 0 mm
18:49 2.8 °C -10.4 °C 1031 hPa Calm   11.3 km/h 37% 0 mm
18:54 2.7 °C -10.6 °C 1031 hPa NE 3.2 km/h 6.4 km/h 37% 0 mm
18:59 2.4 °C -10.4 °C 1031 hPa Calm   6.4 km/h 38% 0 mm
19:04 2.3 °C -10.3 °C 1031 hPa Calm   8 km/h 39% 0 mm
19:09 2 °C -10.8 °C 1031 hPa Calm   8 km/h 38% 0 mm
19:14 1.7 °C -11.1 °C 1031 hPa NNE 3.2 km/h 8 km/h 38% 0 mm
19:19 1.5 °C -10.3 °C 1031 hPa Calm   8 km/h 41% 0 mm
19:24 1.3 °C -9.9 °C 1031 hPa Calm   11.3 km/h 43% 0 mm
19:29 1.1 °C -10.7 °C 1030.7 hPa NE 1.6 km/h 11.3 km/h 41% 0 mm
19:35 0.8 °C -11.3 °C 1031 hPa NNE 3.2 km/h 8 km/h 40% 0 mm
19:39 0.6 °C -11.4 °C 1031 hPa NE 1.6 km/h 11.3 km/h 40% 0 mm
19:44 0.4 °C -10.7 °C 1030.7 hPa Calm   11.3 km/h 43% 0 mm
19:50 0.3 °C -11.7 °C 1030.7 hPa NE 3.2 km/h 12.9 km/h 40% 0 mm
19:59 0.2 °C -11.2 °C 1031 hPa NE 1.6 km/h 11.3 km/h 42% 0 mm
20:04 0.1 °C -11.6 °C 1031 hPa NNE 1.6 km/h 11.3 km/h 41% 0 mm
20:09 0.1 °C -11.3 °C 1031 hPa Calm   8 km/h 42% 0 mm
20:14 0 °C -11.1 °C 1031 hPa Calm   8 km/h 43% 0 mm
20:19 -0.2 °C -10.4 °C 1031.4 hPa NE 1.6 km/h 6.4 km/h 46% 0 mm
20:24 -0.3 °C -10.3 °C 1031.4 hPa Calm   6.4 km/h 47% 0 mm
20:29 -0.5 °C -10.7 °C 1031.4 hPa Calm   3.2 km/h 46% 0 mm
20:34 -0.6 °C -10.6 °C 1031.4 hPa NE 1.6 km/h 4.8 km/h 47% 0 mm
20:39 -0.7 °C -10.3 °C 1031.4 hPa Calm   4.8 km/h 48% 0 mm
20:44 -0.7 °C -10.7 °C 1031.4 hPa Calm   6.4 km/h 47% 0 mm
20:49 -0.8 °C -10.4 °C 1031.4 hPa Calm   11.3 km/h 48% 0 mm
20:54 -0.9 °C -10.6 °C 1031.4 hPa Calm   11.3 km/h 48% 0 mm
20:59 -0.9 °C -10.6 °C 1031.4 hPa Calm   6.4 km/h 48% 0 mm
21:04 -0.9 °C -10.6 °C 1031.4 hPa NE 1.6 km/h 8 km/h 48% 0 mm
21:09 -0.9 °C -10.3 °C 1031.7 hPa Calm   8 km/h 49% 0 mm
21:14 -1 °C -10.6 °C 1031.7 hPa Calm   8 km/h 48% 0 mm
21:19 -1 °C -10.6 °C 1031.7 hPa Calm   8 km/h 48% 0 mm
21:24 -1 °C -10.6 °C 1031.7 hPa Calm   8 km/h 48% 0 mm
21:29 -1.1 °C -10.2 °C 1031.7 hPa Calm   4.8 km/h 50% 0 mm
21:34 -1.2 °C -10.3 °C 1031.7 hPa Calm   4.8 km/h 50% 0 mm
21:39 -1.3 °C -10.2 °C 1031.7 hPa Calm   4.8 km/h 51% 0 mm
21:44 -1.4 °C -10.3 °C 1031.7 hPa Calm   1.6 km/h 51% 0 mm
21:49 -1.4 °C -9.6 °C 1031.7 hPa Calm   1.6 km/h 54% 0 mm
21:54 -1.6 °C -9.7 °C 1031.7 hPa Calm   1.6 km/h 54% 0 mm
21:59 -1.6 °C -9.5 °C 1031.7 hPa Calm   1.6 km/h 55% 0 mm
22:04 -1.7 °C -10 °C 1031.7 hPa Calm   1.6 km/h 53% 0 mm
22:09 -1.8 °C -9.9 °C 1031.4 hPa Calm   1.6 km/h 54% 0 mm
22:14 -1.8 °C -9.2 °C 1031.4 hPa Calm   1.6 km/h 57% 0 mm
22:19 -1.9 °C -9.3 °C 1031.4 hPa Calm   1.6 km/h 57% 0 mm
22:24 -2 °C -9.6 °C 1031.4 hPa Calm   1.6 km/h 56% 0 mm
22:29 -2.1 °C -9.7 °C 1031.4 hPa Calm   3.2 km/h 56% 0 mm
22:34 -2.1 °C -9.7 °C 1031 hPa Calm   3.2 km/h 56% 0 mm
22:39 -2.1 °C -9.9 °C 1031 hPa Calm     55% 0 mm
22:44 -2.1 °C -9.5 °C 1031 hPa Calm   1.6 km/h 57% 0 mm
22:49 -2.1 °C -10.2 °C 1031 hPa Calm   4.8 km/h 54% 0 mm
22:54 -2.1 °C -9.9 °C 1031 hPa Calm   4.8 km/h 55% 0 mm
22:59 -2 °C -10.8 °C 1031 hPa NE 1.6 km/h 8 km/h 51% 0 mm
23:04 -1.8 °C -9.9 °C 1030.7 hPa Calm   8 km/h 54% 0 mm
23:09 -1.9 °C -9.9 °C 1031 hPa Calm     54% 0 mm
23:14 -1.9 °C -10 °C 1031 hPa Calm     54% 0 mm
23:19 -2.1 °C -9.9 °C 1031 hPa Calm   1.6 km/h 55% 0 mm
23:24 -2.1 °C -9.9 °C 1031 hPa Calm   1.6 km/h 55% 0 mm
23:29 -2.2 °C -9.6 °C 1031 hPa Calm     57% 0 mm
23:34 -2.4 °C -10 °C 1031 hPa Calm     56% 0 mm
23:39 -2.5 °C -9.8 °C 1030.7 hPa Calm     57% 0 mm
23:44 -2.4 °C -10 °C 1030.7 hPa Calm   1.6 km/h 56% 0 mm
23:49 -2.3 °C -9.9 °C 1030.7 hPa Calm   1.6 km/h 56% 0 mm
23:54 -2.2 °C -9.6 °C 1030.7 hPa Calm   1.6 km/h 57% 0 mm
23:59 -2.5 °C -9.2 °C 1030.7 hPa Calm     60% 0 mm
Westford Weather
Compliments of Weather Underground

 
 
Current Radar Loop:

Copyright © WestfordWeather.net 2007-2014. All rights reserved.